createdAt,value
2022-07-30T00:02:11.761Z,101397.19
2022-07-30T00:04:41.113Z,101385.28
2022-07-30T00:07:09.604Z,101387.53
2022-07-30T00:09:37.548Z,101387.50
2022-07-30T00:12:05.926Z,101387.41
2022-07-30T00:14:35.121Z,101393.69
2022-07-30T00:17:04.112Z,101382.53
2022-07-30T00:19:32.446Z,101378.56
2022-07-30T00:22:01.782Z,101372.59
2022-07-30T00:24:29.817Z,101377.69
2022-07-30T00:26:57.845Z,101367.81
2022-07-30T00:29:26.812Z,101382.41
2022-07-30T00:31:54.743Z,101375.31
2022-07-30T00:34:22.814Z,101380.03
2022-07-30T00:36:50.837Z,101377.63
2022-07-30T00:39:20.088Z,101378.44
2022-07-30T00:41:56.011Z,101374.44
2022-07-30T00:44:24.179Z,101379.16
2022-07-30T00:46:52.424Z,101382.28
2022-07-30T00:49:21.096Z,101387.00
2022-07-30T00:51:49.363Z,101383.00
2022-07-30T00:54:19.097Z,101377.44
2022-07-30T00:56:48.075Z,101383.69
2022-07-30T00:59:16.326Z,101389.50
2022-07-30T01:01:44.577Z,101392.19
2022-07-30T01:04:12.659Z,101388.09
2022-07-30T01:06:41.511Z,101384.88
2022-07-30T01:09:10.070Z,101391.81
2022-07-30T01:11:42.668Z,101387.78
2022-07-30T01:14:11.271Z,101387.63
2022-07-30T01:16:41.746Z,101382.41
2022-07-30T01:19:32.858Z,101384.31
2022-07-30T01:22:08.143Z,101391.25
2022-07-30T01:24:39.727Z,101391.97
2022-07-30T01:27:09.791Z,101384.00
2022-07-30T01:29:40.589Z,101387.84
2022-07-30T01:32:09.919Z,101390.16
2022-07-30T01:34:38.962Z,101389.28
2022-07-30T01:37:10.712Z,101392.41
2022-07-30T01:39:39.984Z,101394.28
2022-07-30T01:42:11.742Z,101390.66
2022-07-30T01:44:41.990Z,101391.38
2022-07-30T01:47:13.020Z,101400.34
2022-07-30T01:49:42.498Z,101392.38
2022-07-30T01:52:11.871Z,101397.44
2022-07-30T01:54:41.746Z,101389.09
2022-07-30T01:57:11.633Z,101389.38
2022-07-30T01:59:41.565Z,101391.66
2022-07-30T02:02:09.635Z,101397.53
2022-07-30T02:04:37.682Z,101398.69
2022-07-30T02:07:15.894Z,101406.56
2022-07-30T02:09:52.834Z,101405.78
2022-07-30T02:12:29.819Z,101402.22
2022-07-30T02:15:08.206Z,101403.50
2022-07-30T02:17:45.261Z,101401.88
2022-07-30T02:20:16.191Z,101414.50
2022-07-30T02:22:48.383Z,101401.88
2022-07-30T02:25:21.391Z,101406.94
2022-07-30T02:27:54.039Z,101403.75
2022-07-30T02:30:26.880Z,101412.00
2022-07-30T02:33:00.435Z,101403.31
2022-07-30T02:35:31.678Z,101401.69
2022-07-30T02:38:02.216Z,101397.00
2022-07-30T02:40:30.345Z,101405.63
2022-07-30T02:43:01.905Z,101402.44
2022-07-30T02:45:31.888Z,101409.78
2022-07-30T02:48:03.260Z,101410.09
2022-07-30T02:50:33.021Z,101406.44
2022-07-30T02:53:02.481Z,101410.25
2022-07-30T02:55:33.715Z,101414.09
2022-07-30T02:58:05.219Z,101412.41
2022-07-30T03:00:34.785Z,101407.16
2022-07-30T03:03:06.313Z,101405.91
2022-07-30T03:05:35.428Z,101408.59
2022-07-30T03:08:04.698Z,101409.28
2022-07-30T03:10:33.895Z,101409.66
2022-07-30T03:13:05.521Z,101413.13
2022-07-30T03:15:35.136Z,101406.72
2022-07-30T03:18:08.959Z,101412.13
2022-07-30T03:20:38.436Z,101408.13
2022-07-30T03:23:08.203Z,101410.44
2022-07-30T03:25:37.712Z,101407.25
2022-07-30T03:28:09.193Z,101405.19
2022-07-30T03:30:37.714Z,101412.56
2022-07-30T03:33:07.020Z,101418.06
2022-07-30T03:35:35.854Z,101416.81
2022-07-30T03:38:06.457Z,101421.06
2022-07-30T03:40:35.371Z,101426.09
2022-07-30T03:43:03.763Z,101429.53
2022-07-30T03:45:33.949Z,101430.69
2022-07-30T03:48:02.628Z,101433.31
2022-07-30T03:50:31.469Z,101430.13
2022-07-30T03:52:59.555Z,101430.94
2022-07-30T03:55:28.154Z,101430.94
2022-07-30T03:57:56.420Z,101430.94
2022-07-30T04:00:24.766Z,101427.03
2022-07-30T04:02:54.849Z,101430.25
2022-07-30T04:05:23.315Z,101435.75
2022-07-30T04:07:51.221Z,101441.69
2022-07-30T04:10:19.878Z,101443.63
2022-07-30T04:12:47.838Z,101447.19
2022-07-30T04:16:40.169Z,101453.13
2022-07-30T04:18:10.295Z,101451.53
2022-07-30T04:20:43.001Z,101453.13
2022-07-30T04:23:13.163Z,101457.47
2022-07-30T04:25:43.589Z,101453.59
2022-07-30T04:28:13.113Z,101448.88
2022-07-30T04:30:42.203Z,101458.75
2022-07-30T04:33:11.618Z,101456.81
2022-07-30T04:35:50.738Z,101464.25
2022-07-30T04:38:20.195Z,101467.31
2022-07-30T04:40:48.426Z,101475.91
2022-07-30T04:43:16.625Z,101473.50
2022-07-30T04:45:44.950Z,101474.66
2022-07-30T04:48:14.409Z,101485.22
2022-07-30T04:50:44.420Z,101482.78
2022-07-30T04:53:12.992Z,101483.88
2022-07-30T04:55:44.232Z,101485.81
2022-07-30T04:58:14.938Z,101486.63
2022-07-30T05:00:44.486Z,101490.59
2022-07-30T05:03:15.699Z,101492.19
2022-07-30T05:05:45.687Z,101490.25
2022-07-30T05:08:14.244Z,101492.31
2022-07-30T05:10:42.208Z,101499.41
2022-07-30T05:13:13.131Z,101496.44
2022-07-30T05:15:41.298Z,101505.13
2022-07-30T05:18:09.850Z,101512.22
2022-07-30T05:20:39.443Z,101506.72
2022-07-30T05:23:07.555Z,101506.72
2022-07-30T05:25:35.672Z,101509.47
2022-07-30T05:28:06.618Z,101513.81
2022-07-30T05:30:34.613Z,101511.06
2022-07-30T05:33:03.720Z,101512.34
2022-07-30T05:35:41.042Z,101519.31
2022-07-30T05:38:09.172Z,101523.22
2022-07-30T05:40:37.098Z,101521.63
2022-07-30T05:43:05.459Z,101523.56
2022-07-30T05:45:33.684Z,101531.03
2022-07-30T05:48:01.968Z,101524.81
2022-07-30T05:50:29.988Z,101528.91
2022-07-30T05:52:59.593Z,101533.63
2022-07-30T05:55:27.496Z,101537.59
2022-07-30T05:57:55.453Z,101533.00
2022-07-30T06:00:23.375Z,101537.13
2022-07-30T06:02:51.630Z,101541.91
2022-07-30T06:05:19.939Z,101542.81
2022-07-30T06:07:48.155Z,101539.81
2022-07-30T06:10:17.678Z,101541.84
2022-07-30T06:12:45.735Z,101546.19
2022-07-30T06:15:14.003Z,101546.19
2022-07-30T06:17:53.226Z,101551.88
2022-07-30T06:20:29.656Z,101545.22
2022-07-30T06:22:57.607Z,101549.31
2022-07-30T06:25:27.518Z,101543.56
2022-07-30T06:27:55.386Z,101549.94
2022-07-30T06:30:31.148Z,101555.44
2022-07-30T06:32:59.573Z,101560.16
2022-07-30T06:35:27.434Z,101551.91
2022-07-30T06:38:06.864Z,101561.88
2022-07-30T06:40:37.374Z,101557.50
2022-07-30T06:43:05.337Z,101563.03
2022-07-30T06:45:33.152Z,101561.88
2022-07-30T06:48:01.322Z,101574.47
2022-07-30T06:50:29.883Z,101578.44
2022-07-30T06:52:57.912Z,101569.75
2022-07-30T06:55:25.949Z,101577.75
2022-07-30T06:57:55.250Z,101580.25
2022-07-30T07:00:23.300Z,101577.22
2022-07-30T07:02:51.477Z,101575.00
2022-07-30T07:05:20.598Z,101575.22
2022-07-30T07:07:58.269Z,101581.34
2022-07-30T07:10:27.404Z,101576.47
2022-07-30T07:12:57.147Z,101573.59
2022-07-30T07:15:36.337Z,101577.41
2022-07-30T07:18:06.527Z,101571.34
2022-07-30T07:20:35.243Z,101576.59
2022-07-30T07:23:09.405Z,101575.72
2022-07-30T07:25:40.784Z,101579.13
2022-07-30T07:28:12.145Z,101577.78
2022-07-30T07:30:43.292Z,101578.66
2022-07-30T07:33:12.620Z,101576.91
2022-07-30T07:35:49.382Z,101580.00
2022-07-30T07:38:18.617Z,101581.44
2022-07-30T07:40:47.211Z,101581.28
2022-07-30T07:43:17.158Z,101577.94
2022-07-30T07:45:48.460Z,101576.81
2022-07-30T07:48:16.407Z,101570.88
2022-07-30T07:50:44.421Z,101574.72
2022-07-30T07:53:12.898Z,101569.81
2022-07-30T07:55:40.874Z,101577.44
2022-07-30T07:58:11.517Z,101574.78
2022-07-30T08:00:43.382Z,101577.31
2022-07-30T08:03:11.969Z,101575.94
2022-07-30T08:06:02.024Z,101574.19
2022-07-30T08:08:27.816Z,101570.78
2022-07-30T08:10:55.789Z,101577.19
2022-07-30T08:13:48.971Z,101563.81
2022-07-30T08:16:14.658Z,101571.00
2022-07-30T08:18:42.612Z,101575.44
2022-07-30T08:21:10.770Z,101571.13
2022-07-30T08:23:42.510Z,101575.91
2022-07-30T08:26:11.153Z,101574.31
2022-07-30T08:28:39.191Z,101573.94
2022-07-30T08:31:07.290Z,101567.97
2022-07-30T08:33:36.873Z,101577.47
2022-07-30T08:36:09.694Z,101577.44
2022-07-30T08:38:38.616Z,101569.03
2022-07-30T08:41:07.538Z,101572.22
2022-07-30T08:43:37.240Z,101573.78
2022-07-30T08:46:08.838Z,101577.34
2022-07-30T08:48:38.852Z,101582.16
2022-07-30T08:51:07.215Z,101572.56
2022-07-30T08:53:35.506Z,101570.16
2022-07-30T08:56:04.829Z,101576.13
2022-07-30T08:58:37.206Z,101579.16
2022-07-30T09:01:07.336Z,101581.53
2022-07-30T09:03:43.977Z,101573.91
2022-07-30T09:06:13.245Z,101570.19
2022-07-30T09:08:42.094Z,101564.41
2022-07-30T09:11:10.180Z,101568.03
2022-07-30T09:13:42.708Z,101574.56
2022-07-30T09:16:21.280Z,101577.72
2022-07-30T09:18:51.437Z,101581.59
2022-07-30T09:21:23.446Z,101570.72
2022-07-30T09:23:59.590Z,101563.25
2022-07-30T09:26:27.717Z,101569.94
2022-07-30T09:28:56.056Z,101570.19
2022-07-30T09:31:24.557Z,101552.50
2022-07-30T09:33:54.166Z,101557.16
2022-07-30T09:36:22.169Z,101554.94
2022-07-30T09:38:52.207Z,101561.38
2022-07-30T09:41:39.220Z,101555.28
2022-07-30T09:44:08.145Z,101554.47
2022-07-30T09:46:43.457Z,101552.03
2022-07-30T09:49:20.353Z,101558.44
2022-07-30T09:51:55.671Z,101558.75
2022-07-30T09:54:25.979Z,101558.53
2022-07-30T09:57:23.238Z,101567.91
2022-07-30T09:59:55.449Z,101568.63
2022-07-30T10:02:31.913Z,101564.28
2022-07-30T10:05:14.595Z,101565.81
2022-07-30T10:07:51.131Z,101557.72
2022-07-30T10:10:25.331Z,101562.53
2022-07-30T10:12:58.111Z,101557.28
2022-07-30T10:15:30.889Z,101554.88
2022-07-30T10:18:01.515Z,101557.34
2022-07-30T10:20:31.193Z,101564.03
2022-07-30T10:23:08.105Z,101565.84
2022-07-30T10:25:48.836Z,101559.88
2022-07-30T10:28:23.255Z,101556.78
2022-07-30T10:30:52.765Z,101561.75
2022-07-30T10:33:36.664Z,101556.00
2022-07-30T10:36:11.947Z,101556.00
2022-07-30T10:38:43.078Z,101560.66
2022-07-30T10:41:22.271Z,101566.72
2022-07-30T10:44:26.302Z,101563.75
2022-07-30T10:47:07.090Z,101570.22
2022-07-30T10:49:41.357Z,101566.91
2022-07-30T10:52:13.064Z,101569.88
2022-07-30T10:54:44.451Z,101566.81
2022-07-30T10:57:32.420Z,101558.41
2022-07-30T11:00:12.120Z,101562.34
2022-07-30T11:03:01.584Z,101558.38
2022-07-30T11:05:45.560Z,101548.78
2022-07-30T11:08:36.135Z,101555.44
2022-07-30T11:11:19.878Z,101553.38
2022-07-30T11:13:58.442Z,101545.94
2022-07-30T11:16:59.800Z,101548.63
2022-07-30T11:19:55.675Z,101555.31
2022-07-30T11:22:31.662Z,101546.03
2022-07-30T11:25:06.618Z,101551.31
2022-07-30T11:27:42.352Z,101544.91
2022-07-30T11:30:34.970Z,101540.34
2022-07-30T11:33:33.210Z,101545.94
2022-07-30T11:36:10.571Z,101545.72
2022-07-30T11:39:06.712Z,101537.63
2022-07-30T11:41:36.552Z,101549.94
2022-07-30T11:44:27.098Z,101551.91
2022-07-30T11:46:55.327Z,101540.56
2022-07-30T11:49:23.511Z,101546.50
2022-07-30T11:51:52.077Z,101544.03
2022-07-30T11:54:20.148Z,101541.34
2022-07-30T11:56:55.208Z,101542.06
2022-07-30T11:59:23.196Z,101539.13
2022-07-30T12:01:52.688Z,101535.97
2022-07-30T12:04:21.052Z,101541.50
2022-07-30T12:06:50.043Z,101543.25
2022-07-30T12:09:28.687Z,101541.00
2022-07-30T12:11:59.051Z,101551.47
2022-07-30T12:14:38.536Z,101545.41
2022-07-30T12:17:06.492Z,101543.13
2022-07-30T12:19:47.791Z,101544.28
2022-07-30T12:22:16.554Z,101536.50
2022-07-30T12:24:44.563Z,101534.72
2022-07-30T12:27:14.223Z,101527.25
2022-07-30T12:29:42.447Z,101524.72
2022-07-30T12:32:11.228Z,101517.34
2022-07-30T12:34:39.194Z,101527.97
2022-07-30T12:37:10.918Z,101517.84
2022-07-30T12:39:40.470Z,101527.44
2022-07-30T12:42:08.722Z,101527.69
2022-07-30T12:44:39.822Z,101526.59
2022-07-30T12:47:20.027Z,101524.81
2022-07-30T12:49:49.587Z,101521.03
2022-07-30T12:52:27.809Z,101525.97
2022-07-30T12:55:02.827Z,101529.25
2022-07-30T12:57:57.612Z,101527.41
2022-07-30T13:00:29.706Z,101518.09
2022-07-30T13:02:58.679Z,101526.97
2022-07-30T13:05:45.934Z,101529.88
2022-07-30T13:08:13.952Z,101522.50
2022-07-30T13:10:55.743Z,101516.41
2022-07-30T13:13:23.835Z,101526.50
2022-07-30T13:16:01.441Z,101522.59
2022-07-30T13:18:30.172Z,101519.81
2022-07-30T13:20:58.265Z,101517.91
2022-07-30T13:23:26.675Z,101523.03
2022-07-30T13:25:55.237Z,101523.25
2022-07-30T13:28:25.390Z,101527.38
2022-07-30T13:30:53.637Z,101529.19
2022-07-30T13:33:23.064Z,101527.97
2022-07-30T13:35:51.035Z,101523.47
2022-07-30T13:38:18.924Z,101523.84
2022-07-30T13:40:46.911Z,101527.66
2022-07-30T13:43:15.312Z,101522.13
2022-07-30T13:45:46.296Z,101531.31
2022-07-30T13:48:15.914Z,101525.41
2022-07-30T13:50:45.723Z,101524.72
2022-07-30T13:53:13.999Z,101522.34
2022-07-30T13:55:42.725Z,101528.97
2022-07-30T13:58:11.180Z,101523.06
2022-07-30T14:00:40.371Z,101517.63
2022-07-30T14:03:11.117Z,101513.47
2022-07-30T14:05:42.506Z,101512.72
2022-07-30T14:08:13.009Z,101515.06
2022-07-30T14:10:41.627Z,101486.66
2022-07-30T14:13:16.039Z,101493.50
2022-07-30T14:15:49.073Z,101505.97
2022-07-30T14:18:17.254Z,101499.47
2022-07-30T14:20:48.566Z,101500.25
2022-07-30T14:23:18.201Z,101494.72
2022-07-30T14:25:46.152Z,101492.59
2022-07-30T14:28:14.401Z,101488.34
2022-07-30T14:30:42.302Z,101482.03
2022-07-30T14:33:10.288Z,101494.84
2022-07-30T14:35:38.253Z,101481.47
2022-07-30T14:38:06.386Z,101487.75
2022-07-30T14:40:35.618Z,101491.22
2022-07-30T14:43:03.749Z,101491.19
2022-07-30T14:45:36.545Z,101481.03
2022-07-30T14:48:04.761Z,101482.75
2022-07-30T14:50:32.800Z,101481.94
2022-07-30T14:53:00.644Z,101492.72
2022-07-30T14:55:28.648Z,101490.00
2022-07-30T14:57:57.908Z,101484.38
2022-07-30T15:00:25.911Z,101478.31
2022-07-30T15:02:53.800Z,101479.66
2022-07-30T15:05:21.950Z,101483.03
2022-07-30T15:07:49.885Z,101490.91
2022-07-30T15:10:17.793Z,101482.34
2022-07-30T15:12:46.027Z,101476.22
2022-07-30T15:15:17.373Z,101487.78
2022-07-30T15:17:45.610Z,101483.63
2022-07-30T15:20:14.383Z,101480.91
2022-07-30T15:22:42.544Z,101484.03
2022-07-30T15:25:10.577Z,101474.38
2022-07-30T15:27:38.542Z,101469.53
2022-07-30T15:30:07.293Z,101483.84
2022-07-30T15:32:37.135Z,101480.69
2022-07-30T15:35:08.394Z,101481.72
2022-07-30T15:37:38.569Z,101481.56
2022-07-30T15:40:07.289Z,101486.13
2022-07-30T15:42:35.135Z,101479.94
2022-07-30T15:45:19.110Z,101477.50
2022-07-30T15:47:48.504Z,101480.13
2022-07-30T15:50:17.252Z,101482.44
2022-07-30T15:52:45.358Z,101480.88
2022-07-30T15:55:13.487Z,101480.16
2022-07-30T15:57:42.202Z,101481.06
2022-07-30T16:00:12.772Z,101481.91
2022-07-30T16:02:41.274Z,101486.56
2022-07-30T16:05:14.155Z,101482.63
2022-07-30T16:07:43.000Z,101481.91
2022-07-30T16:10:11.479Z,101475.53
2022-07-30T16:12:39.690Z,101487.09
2022-07-30T16:15:10.825Z,101481.13
2022-07-30T16:17:39.012Z,101479.56
2022-07-30T16:20:07.913Z,101481.41
2022-07-30T16:22:37.493Z,101487.84
2022-07-30T16:25:06.368Z,101485.50
2022-07-30T16:27:34.231Z,101481.88
2022-07-30T16:30:02.997Z,101485.06
2022-07-30T16:32:30.943Z,101489.94
2022-07-30T16:34:58.828Z,101488.13
2022-07-30T16:37:26.674Z,101484.50
2022-07-30T16:39:55.954Z,101485.72
2022-07-30T16:42:23.907Z,101478.44
2022-07-30T16:44:51.902Z,101482.91
2022-07-30T16:47:19.783Z,101476.59
2022-07-30T16:49:47.654Z,101482.13
2022-07-30T16:52:17.118Z,101480.72
2022-07-30T16:54:44.948Z,101480.38
2022-07-30T16:57:14.645Z,101475.91
2022-07-30T16:59:43.675Z,101478.72
2022-07-30T17:02:12.457Z,101478.72
2022-07-30T17:04:41.476Z,101482.56
2022-07-30T17:07:09.592Z,101476.53
2022-07-30T17:09:37.734Z,101470.00
2022-07-30T17:12:11.807Z,101470.00
2022-07-30T17:14:42.034Z,101474.38
2022-07-30T17:17:14.261Z,101470.78
2022-07-30T17:19:42.768Z,101474.75
2022-07-30T17:22:10.943Z,101470.16
2022-07-30T17:24:38.844Z,101481.59
2022-07-30T17:27:06.927Z,101478.63
2022-07-30T17:29:34.977Z,101484.25
2022-07-30T17:32:20.311Z,101487.13
2022-07-30T17:34:48.340Z,101482.91
2022-07-30T17:37:16.474Z,101486.59
2022-07-30T17:40:19.758Z,101487.81
2022-07-30T17:42:32.771Z,101487.91
2022-07-30T17:45:01.298Z,101488.03
2022-07-30T17:47:30.649Z,101488.19
2022-07-30T17:49:58.546Z,101497.13
2022-07-30T17:52:27.337Z,101491.47
2022-07-30T17:54:55.503Z,101501.00
2022-07-30T17:57:23.753Z,101499.47
2022-07-30T17:59:51.563Z,101509.06
2022-07-30T18:02:20.683Z,101498.31
2022-07-30T18:04:57.881Z,101490.75
2022-07-30T18:07:26.191Z,101493.97
2022-07-30T18:09:54.144Z,101502.34
2022-07-30T18:12:22.349Z,101502.69
2022-07-30T18:14:50.644Z,101486.66
2022-07-30T18:17:18.604Z,101488.72
2022-07-30T18:19:46.753Z,101492.34
2022-07-30T18:22:16.177Z,101504.47
2022-07-30T18:24:56.174Z,101498.97
2022-07-30T18:27:24.229Z,101495.41
2022-07-30T18:29:53.399Z,101496.19
2022-07-30T18:32:22.181Z,101500.56
2022-07-30T18:34:50.243Z,101503.81
2022-07-30T18:37:19.784Z,101502.28
2022-07-30T18:39:47.907Z,101507.28
2022-07-30T18:42:15.840Z,101519.38
2022-07-30T18:44:43.847Z,101512.28
2022-07-30T18:47:11.782Z,101506.81
2022-07-30T18:49:39.836Z,101513.31
2022-07-30T18:52:08.461Z,101514.97
2022-07-30T18:54:39.165Z,101517.38
2022-07-30T18:57:10.119Z,101509.88
2022-07-30T18:59:42.898Z,101511.88
2022-07-30T19:02:11.093Z,101513.44
2022-07-30T19:04:39.171Z,101514.22
2022-07-30T19:07:07.525Z,101516.66
2022-07-30T19:09:35.625Z,101515.88
2022-07-30T19:12:05.857Z,101518.25
2022-07-30T19:14:34.019Z,101512.69
2022-07-30T19:17:01.911Z,101513.53
2022-07-30T19:19:30.961Z,101516.31
2022-07-30T19:21:59.300Z,101519.91
2022-07-30T19:24:27.771Z,101520.75
2022-07-30T19:26:56.148Z,101519.19
2022-07-30T19:29:25.459Z,101522.41
2022-07-30T19:31:53.531Z,101518.47
2022-07-30T19:34:25.617Z,101518.56
2022-07-30T19:36:54.131Z,101521.38
2022-07-30T19:39:22.386Z,101525.03
2022-07-30T19:41:50.973Z,101520.28
2022-07-30T19:44:19.489Z,101527.50
2022-07-30T19:46:51.815Z,101524.41
2022-07-30T19:49:21.652Z,101526.84
2022-07-30T19:52:07.302Z,101536.03
2022-07-30T19:54:40.654Z,101532.13
2022-07-30T19:57:12.275Z,101525.78
2022-07-30T19:59:46.489Z,101523.81
2022-07-30T20:02:35.585Z,101530.22
2022-07-30T20:05:06.109Z,101531.84
2022-07-30T20:07:39.426Z,101539.03
2022-07-30T20:10:10.597Z,101541.81
2022-07-30T20:12:42.116Z,101531.06
2022-07-30T20:18:03.201Z,101529.50
2022-07-30T20:20:34.679Z,101538.22
2022-07-30T20:23:02.609Z,101544.22
2022-07-30T20:25:37.252Z,101539.84
2022-07-30T20:28:18.531Z,101541.84
2022-07-30T20:30:46.430Z,101542.25
2022-07-30T20:33:16.613Z,101547.03
2022-07-30T20:35:54.943Z,101537.94
2022-07-30T20:38:22.965Z,101540.31
2022-07-30T20:40:53.549Z,101547.09
2022-07-30T20:43:22.835Z,101545.53
2022-07-30T20:45:55.685Z,101547.16
2022-07-30T20:48:31.029Z,101544.78
2022-07-30T20:50:59.013Z,101544.78
2022-07-30T20:53:33.671Z,101540.84
2022-07-30T20:56:06.384Z,101536.88
2022-07-30T20:58:36.003Z,101531.34
2022-07-30T21:01:04.893Z,101543.28
2022-07-30T21:03:34.622Z,101541.69
2022-07-30T21:06:04.027Z,101542.13
2022-07-30T21:08:33.597Z,101536.97
2022-07-30T21:11:01.486Z,101538.94
2022-07-30T21:13:29.447Z,101543.34
2022-07-30T21:16:01.944Z,101536.19
2022-07-30T21:18:31.673Z,101533.41
2022-07-30T21:21:05.492Z,101538.16
2022-07-30T21:23:33.929Z,101537.00
2022-07-30T21:26:05.946Z,101527.06
2022-07-30T21:28:38.852Z,101529.06
2022-07-30T21:31:08.739Z,101532.22
2022-07-30T21:33:39.652Z,101528.66
2022-07-30T21:36:10.659Z,101522.72
2022-07-30T21:38:42.517Z,101523.50
2022-07-30T21:41:14.058Z,101521.09
2022-07-30T21:43:43.809Z,101519.94
2022-07-30T21:46:12.906Z,101517.53
2022-07-30T21:48:41.318Z,101518.31
2022-07-30T21:51:11.553Z,101514.75
2022-07-30T21:53:45.059Z,101510.78
2022-07-30T21:56:15.954Z,101510.41
2022-07-30T21:58:45.280Z,101517.94
2022-07-30T22:01:16.998Z,101512.38
2022-07-30T22:04:01.502Z,101510.38
2022-07-30T22:06:37.954Z,101513.56
2022-07-30T22:09:18.310Z,101515.53
2022-07-30T22:11:54.840Z,101513.56
2022-07-30T22:14:23.359Z,101513.94
2022-07-30T22:16:53.581Z,101515.91
2022-07-30T22:19:22.559Z,101509.13
2022-07-30T22:21:52.176Z,101516.28
2022-07-30T22:24:29.187Z,101507.56
2022-07-30T22:27:11.904Z,101498.81
2022-07-30T22:29:43.388Z,101500.41
2022-07-30T22:32:11.724Z,101511.91
2022-07-30T22:34:39.751Z,101500.00
2022-07-30T22:37:09.254Z,101501.97
2022-07-30T22:39:50.713Z,101499.59
2022-07-30T22:42:20.981Z,101492.47
2022-07-30T22:44:52.784Z,101501.19
2022-07-30T22:47:50.650Z,101505.94
2022-07-30T22:50:09.779Z,101505.53
2022-07-30T22:52:50.127Z,101512.28
2022-07-30T22:55:25.926Z,101509.13
2022-07-30T22:57:54.430Z,101505.53
2022-07-30T23:00:28.132Z,101512.25
2022-07-30T23:02:57.096Z,101509.81
2022-07-30T23:05:25.683Z,101501.88
2022-07-30T23:07:55.868Z,101495.53
2022-07-30T23:10:24.848Z,101503.06
2022-07-30T23:12:17.102Z,101533.88
2022-07-30T23:12:55.704Z,101503.44
2022-07-30T23:15:24.593Z,101499.81
2022-07-30T23:17:53.263Z,101501.78
2022-07-30T23:20:22.111Z,101502.53
2022-07-30T23:22:50.451Z,101495.38
2022-07-30T23:25:19.753Z,101502.91
2022-07-30T23:27:47.944Z,101496.91
2022-07-30T23:30:16.432Z,101493.34
2022-07-30T23:32:44.349Z,101490.97
2022-07-30T23:35:12.232Z,101481.09
2022-07-30T23:37:48.521Z,101477.94
2022-07-30T23:40:19.912Z,101474.38
2022-07-30T23:42:50.251Z,101477.16
2022-07-30T23:45:18.313Z,101474.00
2022-07-30T23:48:00.800Z,101476.41
2022-07-30T23:50:30.359Z,101467.66
2022-07-30T23:52:58.307Z,101466.06
2022-07-30T23:55:28.317Z,101469.22
2022-07-30T23:57:56.297Z,101464.50
